createdAt,value
2022-10-23T00:00:46.594Z,89.55
2022-10-23T00:02:07.230Z,89.65
2022-10-23T00:03:10.399Z,89.64
2022-10-23T00:04:25.541Z,89.63
2022-10-23T00:05:29.949Z,89.62
2022-10-23T00:06:34.988Z,89.62
2022-10-23T00:07:41.731Z,89.68
2022-10-23T00:08:51.591Z,89.63
2022-10-23T00:09:55.976Z,89.77
2022-10-23T00:10:59.223Z,89.73
2022-10-23T00:12:02.395Z,89.70
2022-10-23T00:13:05.621Z,89.74
2022-10-23T00:14:09.680Z,89.66
2022-10-23T00:15:13.038Z,89.71
2022-10-23T00:16:16.711Z,89.74
2022-10-23T00:17:19.910Z,89.78
2022-10-23T00:18:23.021Z,89.76
2022-10-23T00:19:28.908Z,89.78
2022-10-23T00:20:32.102Z,89.68
2022-10-23T00:21:35.573Z,89.81
2022-10-23T00:22:39.229Z,89.86
2022-10-23T00:23:42.771Z,90.03
2022-10-23T00:24:46.213Z,89.81
2022-10-23T00:25:49.661Z,89.95
2022-10-23T00:26:52.901Z,90.27
2022-10-23T00:27:56.988Z,90.11
2022-10-23T00:29:01.274Z,90.20
2022-10-23T00:30:06.041Z,90.15
2022-10-23T00:31:09.350Z,90.20
2022-10-23T00:32:12.542Z,90.18
2022-10-23T00:33:16.428Z,90.34
2022-10-23T00:34:19.972Z,90.37
2022-10-23T00:35:23.216Z,90.32
2022-10-23T00:36:26.754Z,90.41
2022-10-23T00:37:29.934Z,90.29
2022-10-23T00:38:34.749Z,90.38
2022-10-23T00:39:38.723Z,90.35
2022-10-23T00:40:44.195Z,90.30
2022-10-23T00:41:47.507Z,90.18
2022-10-23T00:42:52.221Z,90.23
2022-10-23T00:44:18.696Z,90.09
2022-10-23T00:45:27.882Z,90.11
2022-10-23T00:46:33.681Z,90.11
2022-10-23T00:47:37.026Z,89.94
2022-10-23T00:48:41.637Z,90.09
2022-10-23T00:49:45.029Z,90.00
2022-10-23T00:50:49.731Z,90.20
2022-10-23T00:52:05.183Z,90.11
2022-10-23T00:53:10.522Z,90.02
2022-10-23T00:54:24.517Z,90.05
2022-10-23T00:55:30.709Z,90.03
2022-10-23T00:56:38.587Z,90.02
2022-10-23T00:57:43.609Z,90.10
2022-10-23T00:58:46.997Z,89.99
2022-10-23T00:59:50.236Z,89.98
2022-10-23T01:00:56.458Z,89.89
2022-10-23T01:02:00.469Z,90.00
2022-10-23T01:03:04.506Z,90.01
2022-10-23T01:04:10.481Z,89.98
2022-10-23T01:05:14.513Z,90.11
2022-10-23T01:06:38.762Z,89.90
2022-10-23T01:07:51.117Z,89.90
2022-10-23T01:09:08.916Z,89.84
2022-10-23T01:10:32.412Z,89.85
2022-10-23T01:12:15.522Z,89.83
2022-10-23T01:13:49.812Z,90.01
2022-10-23T01:15:02.241Z,89.79
2022-10-23T01:16:12.439Z,89.91
2022-10-23T01:17:44.661Z,89.77
2022-10-23T01:19:23.751Z,89.95
2022-10-23T01:20:33.283Z,89.86
2022-10-23T01:21:51.490Z,90.02
2022-10-23T01:23:22.335Z,90.00
2022-10-23T01:24:56.285Z,90.12
2022-10-23T01:26:18.480Z,90.12
2022-10-23T01:27:25.256Z,90.06
2022-10-23T01:28:40.167Z,90.04
2022-10-23T01:30:12.060Z,89.93
2022-10-23T01:31:34.088Z,90.00
2022-10-23T01:32:49.211Z,90.04
2022-10-23T01:34:04.228Z,89.94
2022-10-23T01:35:16.487Z,89.92
2022-10-23T01:36:24.425Z,89.79
2022-10-23T01:37:59.148Z,89.88
2022-10-23T01:39:08.409Z,89.91
2022-10-23T01:40:30.056Z,89.98
2022-10-23T01:41:35.413Z,89.87
2022-10-23T01:42:47.585Z,89.67
2022-10-23T01:44:16.966Z,89.85
2022-10-23T01:45:32.915Z,89.67
2022-10-23T01:46:37.603Z,89.71
2022-10-23T01:47:44.420Z,89.71
2022-10-23T01:48:55.567Z,89.70
2022-10-23T01:50:00.292Z,89.68
2022-10-23T01:51:10.015Z,89.52
2022-10-23T01:52:15.228Z,89.49
2022-10-23T01:53:22.165Z,89.45
2022-10-23T01:54:31.752Z,89.46
2022-10-23T01:55:38.418Z,89.49
2022-10-23T01:56:46.286Z,89.42
2022-10-23T01:57:51.284Z,89.49
2022-10-23T01:58:57.717Z,89.44
2022-10-23T02:00:08.743Z,89.45
2022-10-23T02:01:30.643Z,89.31
2022-10-23T02:02:36.415Z,89.31
2022-10-23T02:03:41.151Z,89.33
2022-10-23T02:05:03.764Z,89.02
2022-10-23T02:06:07.720Z,89.17
2022-10-23T02:07:10.984Z,89.23
2022-10-23T02:08:14.396Z,89.17
2022-10-23T02:09:18.422Z,89.26
2022-10-23T02:10:27.122Z,89.23
2022-10-23T02:11:34.717Z,89.22
2022-10-23T02:12:59.829Z,89.16
2022-10-23T02:14:18.144Z,89.16
2022-10-23T02:15:42.831Z,89.07
2022-10-23T02:16:52.142Z,89.07
2022-10-23T02:18:10.192Z,89.10
2022-10-23T02:19:19.771Z,89.06
2022-10-23T02:20:37.260Z,89.01
2022-10-23T02:21:49.441Z,89.03
2022-10-23T02:23:19.911Z,89.01
2022-10-23T02:24:43.975Z,89.03
2022-10-23T02:25:56.768Z,89.10
2022-10-23T02:27:04.233Z,89.10
2022-10-23T02:28:14.561Z,89.00
2022-10-23T02:29:33.870Z,89.24
2022-10-23T02:30:43.070Z,89.08
2022-10-23T02:31:46.960Z,88.94
2022-10-23T02:32:55.260Z,89.11
2022-10-23T02:33:58.871Z,88.90
2022-10-23T02:35:03.083Z,88.94
2022-10-23T02:36:06.934Z,89.12
2022-10-23T02:37:10.256Z,89.00
2022-10-23T02:38:31.145Z,89.02
2022-10-23T02:39:34.395Z,88.98
2022-10-23T02:40:45.102Z,88.96
2022-10-23T02:42:22.378Z,89.03
2022-10-23T02:43:36.673Z,88.98
2022-10-23T02:44:55.376Z,88.99
2022-10-23T02:46:18.694Z,89.15
2022-10-23T02:47:43.432Z,89.05
2022-10-23T02:49:02.161Z,89.12
2022-10-23T02:50:33.837Z,89.10
2022-10-23T02:51:48.327Z,89.34
2022-10-23T02:53:06.693Z,89.35
2022-10-23T02:54:51.859Z,89.45
2022-10-23T02:56:07.803Z,89.37
2022-10-23T02:57:33.734Z,89.54
2022-10-23T02:59:06.652Z,89.37
2022-10-23T03:00:17.955Z,89.59
2022-10-23T03:01:27.624Z,89.58
2022-10-23T03:02:43.008Z,89.46
2022-10-23T03:04:03.271Z,89.47
2022-10-23T03:05:12.947Z,89.49
2022-10-23T03:06:16.642Z,89.38
2022-10-23T03:07:20.811Z,89.37
2022-10-23T03:08:25.329Z,89.32
2022-10-23T03:09:29.940Z,89.29
2022-10-23T03:10:33.280Z,89.09
2022-10-23T03:11:36.846Z,88.97
2022-10-23T03:12:41.114Z,88.95
2022-10-23T03:13:44.674Z,88.88
2022-10-23T03:14:47.941Z,89.07
2022-10-23T03:15:51.747Z,89.10
2022-10-23T03:16:54.976Z,89.19
2022-10-23T03:17:58.182Z,89.04
2022-10-23T03:19:01.685Z,89.06
2022-10-23T03:20:07.470Z,89.02
2022-10-23T03:21:12.147Z,88.93
2022-10-23T03:22:15.335Z,89.06
2022-10-23T03:23:18.614Z,88.92
2022-10-23T03:24:21.823Z,89.14
2022-10-23T03:25:24.921Z,89.28
2022-10-23T03:26:28.551Z,89.21
2022-10-23T03:27:32.022Z,89.25
2022-10-23T03:28:36.180Z,89.16
2022-10-23T03:29:39.434Z,88.97
2022-10-23T03:30:42.613Z,89.03
2022-10-23T03:31:46.044Z,88.88
2022-10-23T03:32:49.510Z,89.10
2022-10-23T03:33:52.731Z,89.00
2022-10-23T03:34:57.521Z,89.09
2022-10-23T03:36:02.963Z,89.15
2022-10-23T03:37:06.161Z,89.05
2022-10-23T03:38:09.553Z,89.23
2022-10-23T03:39:13.267Z,89.25
2022-10-23T03:40:18.633Z,89.14
2022-10-23T03:41:21.830Z,88.96
2022-10-23T03:42:25.013Z,89.08
2022-10-23T03:43:31.707Z,89.02
2022-10-23T03:44:35.326Z,89.03
2022-10-23T03:45:38.847Z,89.16
2022-10-23T03:46:42.216Z,89.12
2022-10-23T03:47:46.782Z,89.00
2022-10-23T03:48:50.583Z,89.01
2022-10-23T03:49:54.689Z,88.92
2022-10-23T03:50:59.730Z,89.08
2022-10-23T03:52:03.793Z,89.04
2022-10-23T03:53:06.983Z,89.17
2022-10-23T03:54:11.485Z,89.17
2022-10-23T03:55:14.794Z,89.18
2022-10-23T03:56:18.193Z,89.18
2022-10-23T03:57:21.540Z,89.39
2022-10-23T03:58:25.628Z,89.09
2022-10-23T03:59:29.505Z,89.14
2022-10-23T04:00:33.455Z,89.04
2022-10-23T04:01:37.297Z,89.01
2022-10-23T04:02:42.779Z,89.08
2022-10-23T04:03:46.508Z,89.00
2022-10-23T04:04:51.732Z,88.80
2022-10-23T04:05:55.614Z,88.59
2022-10-23T04:06:58.885Z,88.66
2022-10-23T04:08:02.632Z,88.53
2022-10-23T04:09:06.783Z,88.67
2022-10-23T04:10:10.547Z,88.61
2022-10-23T04:11:13.775Z,88.67
2022-10-23T04:12:26.061Z,88.43
2022-10-23T04:13:29.448Z,88.48
2022-10-23T04:14:33.156Z,88.49
2022-10-23T04:15:36.504Z,88.38
2022-10-23T04:16:39.961Z,88.32
2022-10-23T04:17:43.147Z,88.43
2022-10-23T04:18:46.323Z,88.41
2022-10-23T04:19:49.438Z,88.26
2022-10-23T04:20:53.020Z,88.28
2022-10-23T04:21:57.397Z,88.15
2022-10-23T04:23:00.816Z,88.16
2022-10-23T04:24:04.491Z,88.07
2022-10-23T04:25:08.748Z,88.15
2022-10-23T04:26:12.447Z,87.84
2022-10-23T04:27:15.806Z,87.97
2022-10-23T04:28:19.446Z,87.95
2022-10-23T04:29:24.701Z,87.88
2022-10-23T04:30:27.986Z,87.78
2022-10-23T04:31:31.882Z,87.60
2022-10-23T04:32:35.098Z,87.68
2022-10-23T04:33:38.252Z,87.48
2022-10-23T04:34:41.716Z,87.46
2022-10-23T04:35:45.251Z,87.57
2022-10-23T04:36:48.498Z,87.76
2022-10-23T04:37:51.690Z,87.72
2022-10-23T04:38:54.972Z,87.67
2022-10-23T04:39:58.087Z,87.65
2022-10-23T04:41:03.811Z,87.64
2022-10-23T04:42:07.123Z,87.62
2022-10-23T04:43:12.087Z,87.65
2022-10-23T04:44:18.069Z,87.68
2022-10-23T04:45:21.806Z,87.50
2022-10-23T04:46:25.051Z,87.53
2022-10-23T04:47:28.610Z,87.07
2022-10-23T04:48:34.338Z,87.03
2022-10-23T04:49:56.603Z,87.21
2022-10-23T04:51:18.693Z,87.08
2022-10-23T04:52:30.523Z,86.93
2022-10-23T04:54:00.055Z,86.89
2022-10-23T04:55:32.777Z,86.99
2022-10-23T04:57:02.142Z,86.91
2022-10-23T04:58:18.692Z,86.91
2022-10-23T04:59:21.925Z,86.94
2022-10-23T05:00:25.889Z,86.93
2022-10-23T05:01:31.419Z,86.69
2022-10-23T05:02:35.622Z,86.64
2022-10-23T05:03:38.967Z,86.63
2022-10-23T05:04:44.056Z,86.47
2022-10-23T05:06:06.689Z,86.62
2022-10-23T05:07:45.844Z,86.56
2022-10-23T05:09:09.568Z,86.45
2022-10-23T05:10:27.057Z,86.35
2022-10-23T05:11:41.951Z,86.37
2022-10-23T05:12:46.102Z,86.43
2022-10-23T05:13:49.406Z,86.40
2022-10-23T05:14:52.681Z,86.37
2022-10-23T05:15:58.798Z,86.31
2022-10-23T05:17:12.691Z,86.12
2022-10-23T05:18:18.633Z,86.07
2022-10-23T05:19:26.692Z,86.19
2022-10-23T05:20:34.252Z,86.13
2022-10-23T05:21:40.021Z,86.19
2022-10-23T05:22:46.286Z,86.01
2022-10-23T05:23:51.090Z,86.08
2022-10-23T05:24:54.932Z,86.12
2022-10-23T05:26:00.863Z,85.92
2022-10-23T05:27:04.175Z,86.05
2022-10-23T05:28:08.314Z,85.92
2022-10-23T05:29:11.936Z,85.89
2022-10-23T05:30:17.385Z,85.95
2022-10-23T05:31:23.647Z,86.00
2022-10-23T05:32:31.372Z,85.94
2022-10-23T05:33:36.398Z,85.91
2022-10-23T05:34:40.648Z,86.00
2022-10-23T05:35:45.521Z,85.81
2022-10-23T05:36:51.445Z,85.88
2022-10-23T05:37:56.062Z,85.87
2022-10-23T05:39:02.396Z,85.71
2022-10-23T05:40:06.331Z,85.69
2022-10-23T05:41:10.633Z,85.55
2022-10-23T05:42:13.948Z,85.54
2022-10-23T05:43:18.791Z,85.54
2022-10-23T05:44:28.673Z,85.39
2022-10-23T05:46:05.348Z,85.57
2022-10-23T05:47:27.320Z,85.54
2022-10-23T05:48:56.428Z,85.57
2022-10-23T05:50:18.534Z,85.66
2022-10-23T05:51:23.355Z,85.50
2022-10-23T05:52:34.886Z,85.44
2022-10-23T05:53:56.809Z,85.57
2022-10-23T05:55:17.834Z,85.59
2022-10-23T05:56:23.705Z,85.62
2022-10-23T05:57:37.427Z,85.46
2022-10-23T05:58:44.177Z,85.53
2022-10-23T06:00:02.762Z,85.50
2022-10-23T06:01:18.690Z,85.66
2022-10-23T06:02:31.400Z,85.83
2022-10-23T06:03:39.894Z,85.75
2022-10-23T06:04:45.781Z,85.76
2022-10-23T06:06:08.506Z,85.69
2022-10-23T06:07:24.592Z,85.71
2022-10-23T06:08:28.302Z,85.67
2022-10-23T06:09:31.603Z,85.78
2022-10-23T06:10:36.924Z,85.71
2022-10-23T06:11:42.377Z,85.87
2022-10-23T06:12:49.643Z,85.85
2022-10-23T06:13:53.789Z,85.85
2022-10-23T06:14:59.199Z,85.99
2022-10-23T06:16:20.624Z,86.05
2022-10-23T06:17:24.366Z,86.04
2022-10-23T06:18:27.626Z,86.05
2022-10-23T06:19:41.677Z,86.12
2022-10-23T06:20:44.901Z,86.30
2022-10-23T06:21:53.651Z,86.36
2022-10-23T06:23:00.131Z,86.36
2022-10-23T06:24:21.412Z,86.39
2022-10-23T06:25:28.912Z,86.34
2022-10-23T06:26:32.563Z,86.95
2022-10-23T06:27:47.963Z,87.20
2022-10-23T06:28:52.056Z,87.45
2022-10-23T06:29:57.641Z,87.46
2022-10-23T06:31:05.656Z,87.74
2022-10-23T06:32:08.951Z,87.55
2022-10-23T06:33:13.193Z,87.74
2022-10-23T06:34:16.547Z,87.72
2022-10-23T06:35:21.646Z,87.75
2022-10-23T06:36:25.938Z,87.79
2022-10-23T06:37:34.766Z,87.75
2022-10-23T06:40:27.395Z,87.65
2022-10-23T06:41:36.691Z,87.59
2022-10-23T06:42:40.306Z,87.56
2022-10-23T06:44:02.433Z,87.61
2022-10-23T06:45:23.139Z,87.48
2022-10-23T06:47:00.563Z,87.54
2022-10-23T06:48:23.758Z,87.29
2022-10-23T06:49:40.227Z,87.41
2022-10-23T06:50:43.598Z,87.56
2022-10-23T06:51:49.023Z,87.44
2022-10-23T06:52:54.021Z,87.56
2022-10-23T06:53:58.503Z,87.57
2022-10-23T06:55:20.560Z,87.39
2022-10-23T06:56:25.456Z,87.36
2022-10-23T06:57:28.951Z,87.13
2022-10-23T06:58:33.768Z,87.01
2022-10-23T06:59:40.264Z,86.96
2022-10-23T07:00:44.759Z,86.87
2022-10-23T07:01:48.313Z,86.70
2022-10-23T07:02:52.936Z,86.72
2022-10-23T07:03:56.282Z,86.32
2022-10-23T07:05:02.207Z,86.28
2022-10-23T07:06:10.170Z,86.07
2022-10-23T07:07:14.083Z,86.19
2022-10-23T07:08:22.037Z,85.97
2022-10-23T07:09:26.758Z,86.04
2022-10-23T07:10:29.906Z,85.64
2022-10-23T07:11:35.291Z,85.16
2022-10-23T07:12:38.582Z,84.29
2022-10-23T07:14:01.627Z,83.61
2022-10-23T07:15:05.691Z,83.12
2022-10-23T07:16:21.098Z,82.81
2022-10-23T07:17:24.875Z,81.97
2022-10-23T07:18:29.218Z,80.82
2022-10-23T07:19:51.269Z,80.03
2022-10-23T07:20:58.749Z,80.14
2022-10-23T07:22:02.087Z,77.63
2022-10-23T07:23:25.987Z,76.21
2022-10-23T07:24:31.081Z,76.64
2022-10-23T07:25:35.009Z,75.43
2022-10-23T07:26:38.246Z,75.03
2022-10-23T07:27:41.881Z,74.19
2022-10-23T07:28:48.656Z,73.92
2022-10-23T07:29:54.456Z,73.76
2022-10-23T07:30:59.654Z,73.35
2022-10-23T07:32:09.447Z,72.91
2022-10-23T07:33:31.650Z,73.33
2022-10-23T07:34:43.509Z,72.85
2022-10-23T07:36:14.688Z,73.10
2022-10-23T07:37:18.022Z,73.85
2022-10-23T07:38:21.517Z,73.06
2022-10-23T07:39:29.491Z,72.31
2022-10-23T07:40:33.232Z,72.10
2022-10-23T07:41:36.462Z,72.57
2022-10-23T07:42:39.668Z,71.66
2022-10-23T07:43:44.074Z,71.33
2022-10-23T07:44:47.218Z,71.04
2022-10-23T07:45:50.786Z,71.24
2022-10-23T07:47:10.361Z,70.78
2022-10-23T07:48:15.559Z,71.40
2022-10-23T07:49:33.744Z,70.98
2022-10-23T07:50:38.832Z,70.87
2022-10-23T07:51:42.389Z,71.29
2022-10-23T07:52:45.849Z,71.00
2022-10-23T07:53:52.736Z,70.93
2022-10-23T07:55:08.507Z,69.52
2022-10-23T07:56:30.055Z,68.67
2022-10-23T07:57:50.357Z,69.36
2022-10-23T07:59:12.955Z,69.29
2022-10-23T08:00:16.485Z,69.72
2022-10-23T08:01:34.883Z,68.90
2022-10-23T08:02:41.572Z,68.07
2022-10-23T08:03:45.809Z,68.39
2022-10-23T08:04:50.547Z,67.94
2022-10-23T08:06:08.162Z,67.32
2022-10-23T08:07:11.379Z,67.99
2022-10-23T08:08:17.573Z,67.47
2022-10-23T08:09:22.946Z,67.36
2022-10-23T08:10:26.316Z,67.93
2022-10-23T08:11:35.385Z,68.43
2022-10-23T08:12:39.177Z,68.05
2022-10-23T08:13:43.956Z,68.11
2022-10-23T08:14:47.437Z,68.61
2022-10-23T08:15:52.752Z,69.23
2022-10-23T08:17:15.873Z,69.00
2022-10-23T08:18:38.019Z,68.50
2022-10-23T08:19:46.589Z,68.42
2022-10-23T08:20:53.442Z,68.46
2022-10-23T08:21:57.489Z,68.29
2022-10-23T08:23:00.888Z,68.07
2022-10-23T08:24:05.736Z,67.93
2022-10-23T08:25:09.423Z,67.90
2022-10-23T08:26:12.958Z,66.70
2022-10-23T08:27:17.376Z,67.68
2022-10-23T08:28:24.625Z,67.45
2022-10-23T08:29:31.993Z,67.38
2022-10-23T08:30:36.835Z,66.51
2022-10-23T08:31:40.187Z,66.29
2022-10-23T08:33:07.345Z,66.51
2022-10-23T08:34:11.447Z,67.21
2022-10-23T08:35:14.978Z,66.26
2022-10-23T08:36:27.554Z,66.96
2022-10-23T08:37:31.044Z,65.67
2022-10-23T08:38:35.831Z,66.05
2022-10-23T08:39:40.823Z,65.42
2022-10-23T08:40:51.475Z,65.27
2022-10-23T08:42:24.919Z,65.62
2022-10-23T08:43:47.183Z,65.77
2022-10-23T08:45:33.279Z,64.92
2022-10-23T08:46:46.307Z,64.98
2022-10-23T08:48:25.836Z,64.90
2022-10-23T08:50:05.329Z,64.60
2022-10-23T08:51:16.638Z,63.88
2022-10-23T08:52:25.544Z,62.70
2022-10-23T08:53:53.126Z,62.42
2022-10-23T08:55:15.283Z,62.09
2022-10-23T08:56:23.452Z,60.59
2022-10-23T08:57:35.545Z,59.95
2022-10-23T08:58:57.344Z,59.31
2022-10-23T09:00:08.151Z,58.75
2022-10-23T09:01:24.866Z,57.49
2022-10-23T09:02:38.769Z,57.26
2022-10-23T09:03:43.698Z,56.23
2022-10-23T09:04:50.223Z,56.88
2022-10-23T09:06:38.117Z,56.27
2022-10-23T09:08:17.963Z,55.97
2022-10-23T09:09:26.792Z,55.39
2022-10-23T09:11:03.519Z,53.82
2022-10-23T09:12:17.870Z,54.20
2022-10-23T09:13:43.025Z,53.25
2022-10-23T09:15:14.981Z,53.98
2022-10-23T09:16:43.758Z,54.50
2022-10-23T09:17:48.154Z,54.42
2022-10-23T09:18:52.525Z,54.39
2022-10-23T09:20:13.938Z,53.66
2022-10-23T09:21:17.291Z,53.67
2022-10-23T09:22:20.941Z,53.94
2022-10-23T09:23:27.346Z,53.96
2022-10-23T09:24:31.934Z,53.71
2022-10-23T09:25:39.161Z,53.62
2022-10-23T09:26:43.076Z,53.37
2022-10-23T09:27:54.767Z,52.83
2022-10-23T09:29:15.031Z,52.86
2022-10-23T09:30:38.152Z,52.74
2022-10-23T09:31:52.597Z,53.12
2022-10-23T09:32:56.426Z,52.67
2022-10-23T09:34:01.922Z,51.86
2022-10-23T09:35:06.388Z,50.89
2022-10-23T09:36:14.010Z,49.97
2022-10-23T09:37:28.082Z,48.71
2022-10-23T09:38:35.957Z,48.81
2022-10-23T09:39:39.303Z,48.75
2022-10-23T09:40:44.319Z,48.22
2022-10-23T09:41:47.653Z,47.17
2022-10-23T09:42:54.189Z,46.74
2022-10-23T09:44:17.978Z,46.02
2022-10-23T09:45:27.488Z,45.26
2022-10-23T09:46:44.760Z,45.24
2022-10-23T09:47:48.031Z,45.86
2022-10-23T09:48:59.906Z,45.80
2022-10-23T09:50:20.551Z,44.94
2022-10-23T09:51:24.288Z,45.33
2022-10-23T09:52:37.151Z,45.09
2022-10-23T09:54:00.860Z,44.99
2022-10-23T09:55:20.755Z,44.80
2022-10-23T09:56:24.937Z,45.05
2022-10-23T09:57:40.706Z,45.28
2022-10-23T09:58:58.022Z,45.37
2022-10-23T10:00:15.683Z,45.55
2022-10-23T10:01:28.191Z,44.86
2022-10-23T10:02:37.931Z,45.13
2022-10-23T10:03:59.854Z,45.51
2022-10-23T10:05:23.832Z,45.33
2022-10-23T10:06:32.792Z,45.61
2022-10-23T10:07:36.900Z,45.94
2022-10-23T10:08:47.070Z,45.72
2022-10-23T10:09:52.285Z,45.91
2022-10-23T10:11:01.890Z,46.08
2022-10-23T10:12:20.021Z,46.47
2022-10-23T10:13:38.642Z,46.52
2022-10-23T10:14:53.429Z,46.45
2022-10-23T10:16:04.021Z,46.74
2022-10-23T10:17:20.011Z,46.38
2022-10-23T10:18:33.212Z,46.31
2022-10-23T10:19:54.953Z,46.51
2022-10-23T10:21:12.108Z,47.20
2022-10-23T10:22:24.604Z,47.29
2022-10-23T10:23:42.007Z,46.96
2022-10-23T10:24:55.885Z,47.10
2022-10-23T10:26:17.303Z,47.39
2022-10-23T10:27:26.710Z,47.72
2022-10-23T10:28:49.291Z,47.24
2022-10-23T10:29:58.474Z,47.50
2022-10-23T10:31:13.754Z,47.57
2022-10-23T10:32:27.637Z,47.38
2022-10-23T10:34:14.166Z,47.61
2022-10-23T10:35:56.335Z,48.40
2022-10-23T10:37:13.821Z,48.94
2022-10-23T10:38:44.428Z,48.81
2022-10-23T10:40:09.374Z,48.74
2022-10-23T10:41:37.887Z,49.15
2022-10-23T10:43:08.496Z,48.45
2022-10-23T10:44:31.566Z,48.30
2022-10-23T10:45:39.859Z,47.37
2022-10-23T10:46:48.996Z,47.77
2022-10-23T10:48:01.546Z,47.65
2022-10-23T10:49:27.188Z,47.29
2022-10-23T10:51:30.197Z,47.54
2022-10-23T10:52:36.918Z,48.01
2022-10-23T10:53:40.476Z,47.86
2022-10-23T10:54:59.128Z,48.13
2022-10-23T10:56:04.154Z,47.86
2022-10-23T10:57:28.822Z,48.13
2022-10-23T10:58:44.108Z,47.96
2022-10-23T10:59:51.458Z,48.07
2022-10-23T11:01:02.163Z,48.49
2022-10-23T11:02:27.088Z,48.87
2022-10-23T11:03:39.171Z,48.83
2022-10-23T11:05:12.713Z,48.74
2022-10-23T11:06:20.954Z,48.30
2022-10-23T11:07:29.927Z,48.36
2022-10-23T11:08:49.899Z,48.65
2022-10-23T11:10:05.042Z,49.19
2022-10-23T11:11:31.192Z,48.97
2022-10-23T11:12:34.365Z,48.87
2022-10-23T11:13:42.685Z,49.41
2022-10-23T11:14:46.543Z,49.99
2022-10-23T11:17:19.223Z,49.74
2022-10-23T11:18:28.779Z,49.97
2022-10-23T11:19:57.866Z,49.01
2022-10-23T11:21:20.007Z,49.28
2022-10-23T11:22:49.681Z,49.25
2022-10-23T11:24:11.675Z,49.21
2022-10-23T11:25:50.531Z,49.05
2022-10-23T11:27:08.636Z,48.17
2022-10-23T11:28:18.575Z,48.26
2022-10-23T11:29:46.312Z,48.52
2022-10-23T11:31:11.706Z,48.87
2022-10-23T11:33:00.124Z,48.21
2022-10-23T11:34:32.121Z,47.94
2022-10-23T11:35:57.796Z,48.28
2022-10-23T11:37:01.862Z,48.36
2022-10-23T11:38:18.174Z,48.34
2022-10-23T11:39:26.152Z,48.06
2022-10-23T11:40:32.478Z,48.51
2022-10-23T11:41:35.764Z,48.61
2022-10-23T11:42:42.367Z,48.81
2022-10-23T11:43:52.250Z,48.68
2022-10-23T11:44:55.355Z,48.73
2022-10-23T11:46:01.688Z,49.32
2022-10-23T11:47:26.172Z,49.49
2022-10-23T11:48:39.321Z,49.35
2022-10-23T11:49:42.585Z,49.15
2022-10-23T11:50:46.258Z,49.31
2022-10-23T11:52:00.497Z,48.89
2022-10-23T11:53:23.784Z,48.63
2022-10-23T11:54:27.622Z,47.95
2022-10-23T11:55:32.431Z,47.51
2022-10-23T11:56:39.000Z,47.23
2022-10-23T11:57:42.396Z,46.47
2022-10-23T11:58:51.060Z,46.10
2022-10-23T11:59:56.239Z,45.98
2022-10-23T12:01:04.769Z,46.07
2022-10-23T12:02:43.257Z,46.40
2022-10-23T12:04:11.673Z,45.77
2022-10-23T12:05:41.726Z,45.48
2022-10-23T12:06:50.315Z,46.08
2022-10-23T12:08:03.857Z,45.83
2022-10-23T12:09:22.250Z,44.80
2022-10-23T12:10:35.223Z,44.85
2022-10-23T12:11:44.775Z,44.69
2022-10-23T12:13:29.025Z,44.30
2022-10-23T12:14:37.689Z,44.37
2022-10-23T12:15:56.065Z,43.94
2022-10-23T12:17:03.191Z,43.63
2022-10-23T12:18:18.234Z,43.36
2022-10-23T12:19:24.252Z,43.08
2022-10-23T12:20:36.918Z,42.79
2022-10-23T12:21:41.071Z,43.09
2022-10-23T12:22:47.196Z,42.46
2022-10-23T12:24:10.352Z,42.11
2022-10-23T12:25:23.986Z,42.67
2022-10-23T12:26:56.748Z,42.71
2022-10-23T12:28:38.532Z,42.43
2022-10-23T12:30:09.836Z,42.13
2022-10-23T12:31:31.206Z,42.00
2022-10-23T12:32:58.336Z,41.66
2022-10-23T12:34:26.371Z,41.90
2022-10-23T12:35:57.349Z,42.13
2022-10-23T12:37:25.313Z,42.64
2022-10-23T12:38:33.858Z,42.19
2022-10-23T12:39:40.524Z,41.79
2022-10-23T12:40:52.482Z,41.42
2022-10-23T12:41:56.722Z,41.31
2022-10-23T12:43:01.501Z,41.28
2022-10-23T12:44:11.029Z,41.31
2022-10-23T12:45:21.711Z,41.29
2022-10-23T12:46:30.993Z,40.69
2022-10-23T12:47:34.464Z,41.02
2022-10-23T12:48:58.971Z,41.26
2022-10-23T12:50:02.091Z,41.18
2022-10-23T12:51:05.489Z,41.27
2022-10-23T12:52:17.813Z,41.30
2022-10-23T12:53:23.221Z,41.06
2022-10-23T12:54:27.697Z,40.57
2022-10-23T12:55:46.917Z,40.40
2022-10-23T12:56:50.477Z,40.65
2022-10-23T12:57:54.921Z,40.55
2022-10-23T12:59:01.556Z,40.25
2022-10-23T13:00:16.293Z,40.54
2022-10-23T13:01:40.436Z,40.55
2022-10-23T13:03:01.187Z,40.63
2022-10-23T13:04:11.023Z,40.56
2022-10-23T13:05:19.581Z,40.55
2022-10-23T13:06:23.137Z,40.34
2022-10-23T13:07:29.851Z,40.19
2022-10-23T13:08:42.517Z,40.82
2022-10-23T13:10:19.876Z,41.90
2022-10-23T13:11:33.491Z,41.90
2022-10-23T13:12:40.540Z,41.85
2022-10-23T13:13:43.979Z,41.64
2022-10-23T13:15:16.460Z,40.68
2022-10-23T13:16:25.853Z,40.55
2022-10-23T13:17:41.559Z,40.71
2022-10-23T13:18:45.544Z,41.49
2022-10-23T13:19:48.726Z,41.46
2022-10-23T13:20:51.954Z,41.15
2022-10-23T13:21:55.357Z,41.64
2022-10-23T13:23:27.068Z,41.98
2022-10-23T13:24:31.546Z,42.19
2022-10-23T13:25:37.100Z,42.43
2022-10-23T13:26:47.792Z,42.35
2022-10-23T13:27:52.012Z,42.39
2022-10-23T13:28:55.565Z,42.41
2022-10-23T13:29:58.699Z,42.61
2022-10-23T13:31:03.451Z,43.41
2022-10-23T13:32:22.303Z,43.81
2022-10-23T13:33:34.481Z,43.68
2022-10-23T13:34:37.681Z,43.68
2022-10-23T13:35:41.286Z,44.65
2022-10-23T13:36:54.201Z,44.57
2022-10-23T13:38:08.175Z,43.94
2022-10-23T13:39:11.455Z,43.70
2022-10-23T13:40:26.679Z,43.63
2022-10-23T13:41:40.463Z,43.54
2022-10-23T13:42:43.756Z,43.73
2022-10-23T13:43:48.676Z,43.43
2022-10-23T13:44:52.232Z,43.99
2022-10-23T13:45:55.485Z,44.49
2022-10-23T13:47:01.006Z,44.75
2022-10-23T13:48:13.876Z,45.09
2022-10-23T13:49:17.268Z,45.83
2022-10-23T13:50:20.951Z,45.72
2022-10-23T13:51:37.638Z,45.15
2022-10-23T13:52:44.137Z,46.06
2022-10-23T13:53:48.001Z,46.13
2022-10-23T13:54:54.308Z,45.87
2022-10-23T13:55:58.765Z,45.63
2022-10-23T13:57:02.139Z,45.96
2022-10-23T13:58:05.537Z,46.12
2022-10-23T13:59:11.001Z,45.89
2022-10-23T14:00:15.490Z,45.21
2022-10-23T14:01:30.495Z,45.41
2022-10-23T14:02:33.837Z,45.60
2022-10-23T14:03:37.125Z,45.79
2022-10-23T14:04:40.444Z,45.51
2022-10-23T14:05:43.637Z,44.50
2022-10-23T14:06:48.786Z,44.21
2022-10-23T14:07:52.270Z,44.08
2022-10-23T14:08:55.497Z,44.13
2022-10-23T14:09:58.833Z,43.92
2022-10-23T14:11:02.140Z,43.37
2022-10-23T14:12:05.748Z,43.14
2022-10-23T14:13:09.272Z,43.57
2022-10-23T14:14:12.552Z,44.59
2022-10-23T14:15:17.945Z,44.81
2022-10-23T14:16:21.823Z,44.69
2022-10-23T14:17:25.115Z,44.97
2022-10-23T14:18:28.890Z,45.28
2022-10-23T14:19:34.339Z,46.32
2022-10-23T14:20:39.306Z,46.74
2022-10-23T14:21:42.516Z,46.89
2022-10-23T14:22:48.259Z,47.26
2022-10-23T14:23:52.916Z,47.03
2022-10-23T14:24:56.228Z,47.37
2022-10-23T14:26:07.164Z,47.09
2022-10-23T14:27:12.459Z,47.23
2022-10-23T14:28:15.700Z,47.89
2022-10-23T14:29:23.872Z,48.00
2022-10-23T14:30:28.351Z,48.42
2022-10-23T14:31:31.935Z,48.50
2022-10-23T14:32:35.178Z,48.99
2022-10-23T14:33:39.352Z,49.43
2022-10-23T14:34:44.541Z,49.64
2022-10-23T14:35:51.113Z,49.70
2022-10-23T14:37:08.087Z,50.08
2022-10-23T14:38:12.583Z,50.17
2022-10-23T14:39:16.224Z,50.25
2022-10-23T14:40:19.401Z,50.56
2022-10-23T14:41:22.890Z,50.71
2022-10-23T14:42:31.715Z,50.67
2022-10-23T14:43:38.757Z,50.77
2022-10-23T14:44:43.706Z,50.71
2022-10-23T14:45:50.138Z,50.67
2022-10-23T14:46:53.571Z,50.60
2022-10-23T14:47:56.848Z,50.59
2022-10-23T14:49:02.473Z,50.62
2022-10-23T14:50:06.717Z,50.85
2022-10-23T14:51:19.681Z,50.99
2022-10-23T14:52:24.047Z,51.04
2022-10-23T14:53:27.273Z,51.26
2022-10-23T14:54:33.233Z,51.30
2022-10-23T14:55:36.548Z,51.34
2022-10-23T14:56:40.968Z,51.43
2022-10-23T14:57:44.550Z,51.52
2022-10-23T14:58:48.289Z,51.81
2022-10-23T14:59:51.956Z,51.85
2022-10-23T15:00:59.825Z,51.87
2022-10-23T15:02:04.181Z,52.00
2022-10-23T15:03:07.631Z,52.34
2022-10-23T15:04:11.302Z,52.54
2022-10-23T15:05:14.989Z,52.81
2022-10-23T15:06:18.487Z,53.34
2022-10-23T15:07:21.980Z,53.46
2022-10-23T15:08:25.322Z,53.58
2022-10-23T15:09:30.321Z,53.83
2022-10-23T15:10:33.647Z,54.09
2022-10-23T15:11:37.116Z,54.10